Kezdőlap
METAR-TAF:

METAR-TAF

Repülőterek :

Asztrahán, Oroszország

földrajzi szélesség: 46-17N, földrajzi hosszúság: 048-00-23E, magasság: 0 m

Jelenlegi meteorológiai megfigyelések

A jelentés 15 perccel ezelõtt készült, 12:30 UTC
Kelet-délkeleti szél 17 kt
Hőmérséklet 21°C
Páratartalom 21%
Légköri nyomás 1026 hPa
Látótávolság 10 km, vagy több
felhőtlen 1500 m magasságban, és nincs gomolyfelhõ

METAR: URWA 291230Z 12009MPS CAVOK 21/M02 Q1026 R09/010070 NOSIG RMK QFE772/1029

Idő: 16:45 (12:45 UTC)

Előrejelzés

A jelentés 1 órával és 45 perccel ezelõtt készült, 11:00 UTC
Az előrejelzés 29-én 12 óra UTC és 29-én 21 óra UTC között érvényes
Kelet-délkeleti szél 14 kt széllökések: 25 kt
Látótávolság 10 km, vagy több
felhőtlen 1500 m magasságban, és nincs gomolyfelhõ
29-én 15 óra UTC és 29-én 17 óra UTC között fokozatosan kialakuló
Keleti szél 10 kt széllökések: 21 kt

TAF: URWA 291100Z 2912/2921 12007G13MPS CAVOK BECMG 2915/2917 09005G11MPS

Meteorológiai megfigyelések és előrejelzések több, mint 4000 repülőtéren (METAR és TAF jelentéseket).

A térképen piros és sárga pontok jelzik az elérhető meteorológiai állomásokat.

Mozgassa az egeret a pont fölött, hogy megjelenjen az állomás neve.

Azután kattintson az időjárási megfigyelések és előrejelzések megtekintéséhez.

A térkép megváltoztatása: kattintson a fekete keresztel jelölt zöld gombra ráközelítéshez, a vonallal jelölt zöld gombra távolításhoz, vagy a zöld nyilakra a szomszédos térképek eléréséhez.


METAR-TAF: